createdAt,value
2023-05-15T00:02:16.595Z,81.31
2023-05-15T00:04:43.215Z,81.51
2023-05-15T00:07:10.429Z,81.37
2023-05-15T00:09:36.999Z,81.51
2023-05-15T00:12:03.704Z,81.51
2023-05-15T00:14:36.734Z,81.42
2023-05-15T00:17:03.335Z,81.46
2023-05-15T00:19:29.927Z,81.46
2023-05-15T00:21:56.474Z,81.77
2023-05-15T00:24:23.042Z,81.27
2023-05-15T00:26:49.703Z,81.69
2023-05-15T00:29:16.399Z,81.68
2023-05-15T00:31:45.794Z,81.57
2023-05-15T00:34:12.392Z,82.21
2023-05-15T00:36:39.023Z,82.33
2023-05-15T00:39:05.590Z,81.74
2023-05-15T00:41:33.436Z,81.63
2023-05-15T00:44:02.151Z,81.73
2023-05-15T00:46:31.979Z,82.25
2023-05-15T00:48:59.719Z,81.87
2023-05-15T00:51:26.876Z,82.01
2023-05-15T00:53:54.895Z,82.07
2023-05-15T00:56:22.036Z,82.53
2023-05-15T00:58:49.912Z,82.14
2023-05-15T01:01:17.315Z,82.34
2023-05-15T01:03:44.683Z,82.17
2023-05-15T01:06:11.497Z,82.04
2023-05-15T01:08:46.641Z,82.66
2023-05-15T01:11:14.997Z,82.42
2023-05-15T01:13:41.788Z,82.10
2023-05-15T01:16:09.315Z,82.04
2023-05-15T01:18:36.947Z,82.22
2023-05-15T01:21:10.606Z,82.24
2023-05-15T01:24:07.626Z,82.14
2023-05-15T01:27:02.518Z,82.59
2023-05-15T01:30:02.018Z,82.67
2023-05-15T01:32:47.103Z,82.78
2023-05-15T01:35:21.523Z,82.75
2023-05-15T01:37:54.870Z,82.85
2023-05-15T01:40:25.115Z,82.71
2023-05-15T01:42:56.402Z,82.77
2023-05-15T01:45:24.830Z,82.19
2023-05-15T01:47:54.523Z,82.36
2023-05-15T01:50:22.091Z,81.42
2023-05-15T01:52:52.185Z,81.81
2023-05-15T01:55:20.727Z,82.20
2023-05-15T01:57:50.366Z,82.54
2023-05-15T02:00:18.120Z,83.03
2023-05-15T02:02:46.072Z,83.56
2023-05-15T02:05:14.034Z,83.47
2023-05-15T02:07:49.522Z,83.59
2023-05-15T02:10:18.470Z,83.80
2023-05-15T02:12:45.524Z,84.06
2023-05-15T02:15:13.327Z,84.22
2023-05-15T02:17:40.992Z,84.32
2023-05-15T02:20:09.701Z,84.44
2023-05-15T02:22:36.272Z,84.25
2023-05-15T02:25:02.941Z,84.28
2023-05-15T02:27:38.007Z,84.07
2023-05-15T02:30:14.868Z,84.32
2023-05-15T02:32:50.729Z,84.60
2023-05-15T02:35:27.165Z,84.38
2023-05-15T02:37:56.827Z,84.72
2023-05-15T02:40:24.979Z,84.61
2023-05-15T02:42:53.310Z,84.27
2023-05-15T02:45:20.703Z,84.05
2023-05-15T02:47:50.543Z,84.42
2023-05-15T02:50:17.366Z,84.05
2023-05-15T02:52:44.024Z,83.76
2023-05-15T02:55:10.745Z,84.21
2023-05-15T02:57:37.409Z,84.57
2023-05-15T03:00:06.877Z,83.87
2023-05-15T03:02:33.503Z,84.04
2023-05-15T03:05:00.209Z,83.88
2023-05-15T03:07:28.182Z,84.13
2023-05-15T03:09:54.754Z,83.92
2023-05-15T03:12:21.339Z,83.70
2023-05-15T03:14:47.945Z,83.92
2023-05-15T03:17:14.537Z,83.70
2023-05-15T03:19:41.244Z,83.95
2023-05-15T03:22:07.907Z,84.11
2023-05-15T03:24:36.008Z,83.82
2023-05-15T03:27:02.548Z,84.27
2023-05-15T03:29:31.283Z,83.85
2023-05-15T03:32:06.891Z,84.38
2023-05-15T03:34:33.688Z,84.42
2023-05-15T03:37:00.276Z,84.46
2023-05-15T03:39:26.873Z,84.00
2023-05-15T03:41:53.385Z,84.00
2023-05-15T03:44:19.988Z,84.28
2023-05-15T03:46:47.739Z,84.29
2023-05-15T03:49:14.385Z,83.51
2023-05-15T03:51:40.958Z,83.42
2023-05-15T03:54:07.706Z,83.50
2023-05-15T03:56:34.423Z,83.40
2023-05-15T03:59:03.496Z,83.28
2023-05-15T04:01:30.123Z,83.69
2023-05-15T04:03:56.661Z,82.70
2023-05-15T04:06:23.439Z,83.23
2023-05-15T04:08:50.281Z,83.13
2023-05-15T04:11:16.882Z,82.98
2023-05-15T04:13:43.430Z,83.27
2023-05-15T04:16:10.015Z,83.43
2023-05-15T04:18:36.640Z,82.99
2023-05-15T04:21:03.712Z,82.97
2023-05-15T04:23:30.358Z,82.39
2023-05-15T04:25:57.031Z,82.63
2023-05-15T04:28:23.616Z,81.46
2023-05-15T04:30:50.178Z,81.94
2023-05-15T04:33:16.953Z,81.47
2023-05-15T04:35:43.542Z,81.47
2023-05-15T04:38:10.124Z,81.72
2023-05-15T04:40:36.713Z,81.91
2023-05-15T04:43:06.435Z,81.40
2023-05-15T04:45:35.729Z,80.98
2023-05-15T04:48:02.906Z,81.41
2023-05-15T04:50:29.579Z,81.26
2023-05-15T04:52:56.132Z,81.18
2023-05-15T04:55:22.827Z,81.19
2023-05-15T04:57:49.582Z,81.15
2023-05-15T05:00:16.515Z,80.85
2023-05-15T05:02:44.153Z,80.89
2023-05-15T05:05:11.052Z,80.87
2023-05-15T05:07:37.715Z,81.21
2023-05-15T05:10:05.549Z,81.07
2023-05-15T05:12:37.660Z,80.79
2023-05-15T05:15:04.761Z,80.76
2023-05-15T05:17:31.642Z,80.64
2023-05-15T05:19:58.292Z,80.89
2023-05-15T05:22:24.894Z,80.47
2023-05-15T05:24:51.448Z,80.12
2023-05-15T05:27:18.113Z,80.43
2023-05-15T05:32:25.419Z,79.68
2023-05-15T05:34:51.996Z,79.54
2023-05-15T05:37:18.529Z,79.39
2023-05-15T05:39:45.109Z,79.12
2023-05-15T05:42:11.697Z,79.12
2023-05-15T05:44:38.260Z,78.66
2023-05-15T05:47:05.178Z,78.76
2023-05-15T05:49:31.886Z,78.78
2023-05-15T05:52:05.384Z,78.39
2023-05-15T05:54:31.946Z,78.75
2023-05-15T05:56:58.499Z,77.89
2023-05-15T05:59:25.208Z,78.09
2023-05-15T06:01:51.976Z,77.37
2023-05-15T06:04:19.258Z,77.87
2023-05-15T06:06:46.047Z,77.39
2023-05-15T06:09:12.539Z,77.20
2023-05-15T06:11:39.135Z,77.08
2023-05-15T06:14:08.386Z,76.35
2023-05-15T06:16:35.487Z,75.76
2023-05-15T06:19:02.129Z,75.78
2023-05-15T06:21:28.784Z,75.54
2023-05-15T06:23:55.602Z,75.15
2023-05-15T06:26:22.642Z,74.15
2023-05-15T06:28:49.215Z,73.75
2023-05-15T06:31:19.411Z,72.71
2023-05-15T06:33:46.079Z,72.61
2023-05-15T06:36:12.666Z,71.88
2023-05-15T06:38:39.700Z,72.10
2023-05-15T06:41:06.260Z,70.96
2023-05-15T06:43:32.909Z,70.95
2023-05-15T06:45:59.497Z,70.74
2023-05-15T06:48:26.043Z,70.75
2023-05-15T06:50:52.615Z,69.57
2023-05-15T06:53:21.039Z,70.06
2023-05-15T06:55:47.545Z,69.49
2023-05-15T06:58:30.709Z,67.79
2023-05-15T07:00:58.734Z,68.83
2023-05-15T07:03:26.036Z,68.69
2023-05-15T07:06:02.518Z,68.83
2023-05-15T07:08:29.091Z,67.38
2023-05-15T07:10:57.224Z,67.77
2023-05-15T07:13:27.797Z,67.71
2023-05-15T07:15:57.385Z,68.19
2023-05-15T07:18:24.206Z,67.83
2023-05-15T07:20:50.844Z,66.90
2023-05-15T07:23:20.493Z,67.87
2023-05-15T07:25:49.546Z,66.48
2023-05-15T07:28:20.341Z,66.13
2023-05-15T07:30:46.982Z,65.11
2023-05-15T07:33:13.590Z,65.67
2023-05-15T07:35:40.385Z,67.51
2023-05-15T07:38:07.159Z,67.29
2023-05-15T07:40:33.748Z,67.13
2023-05-15T07:43:00.415Z,66.02
2023-05-15T07:45:27.292Z,65.33
2023-05-15T07:47:54.715Z,65.61
2023-05-15T07:50:21.508Z,64.28
2023-05-15T07:52:48.206Z,64.91
2023-05-15T07:55:14.805Z,65.63
2023-05-15T07:57:41.347Z,67.72
2023-05-15T08:00:13.012Z,65.51
2023-05-15T08:02:42.836Z,65.71
2023-05-15T08:05:09.635Z,65.46
2023-05-15T08:10:18.095Z,65.73
2023-05-15T08:12:47.234Z,63.90
2023-05-15T08:15:14.107Z,63.75
2023-05-15T08:17:42.485Z,64.18
2023-05-15T08:20:09.718Z,62.99
2023-05-15T08:25:25.691Z,63.24
2023-05-15T08:27:52.387Z,61.93
2023-05-15T08:30:19.012Z,61.50
2023-05-15T08:32:46.727Z,61.15
2023-05-15T08:35:13.364Z,62.51
2023-05-15T08:37:42.228Z,66.36
2023-05-15T08:40:09.290Z,64.99
2023-05-15T08:42:44.381Z,63.08
2023-05-15T08:45:13.137Z,62.84
2023-05-15T08:47:41.479Z,64.58
2023-05-15T08:50:12.240Z,65.11
2023-05-15T08:52:42.008Z,64.70
2023-05-15T08:55:10.767Z,64.91
2023-05-15T08:57:38.499Z,66.29
2023-05-15T09:00:09.459Z,65.21
2023-05-15T09:02:37.577Z,64.58
2023-05-15T09:05:06.215Z,65.40
2023-05-15T09:07:33.482Z,66.07
2023-05-15T09:10:02.132Z,64.04
2023-05-15T09:12:33.989Z,65.30
2023-05-15T09:15:09.648Z,65.49
2023-05-15T09:17:36.292Z,65.43
2023-05-15T09:20:10.478Z,64.47
2023-05-15T09:22:37.292Z,64.53
2023-05-15T09:25:04.480Z,64.65
2023-05-15T09:27:40.587Z,65.38
2023-05-15T09:30:09.867Z,66.62
2023-05-15T09:32:37.537Z,65.66
2023-05-15T09:35:04.693Z,66.68
2023-05-15T09:37:33.976Z,66.67
2023-05-15T09:40:09.504Z,67.24
2023-05-15T09:42:36.823Z,65.79
2023-05-15T09:45:03.696Z,67.17
2023-05-15T09:47:30.941Z,67.56
2023-05-15T09:49:59.788Z,67.50
2023-05-15T09:52:27.814Z,67.28
2023-05-15T09:54:54.456Z,67.37
2023-05-15T09:57:22.468Z,67.61
2023-05-15T09:59:49.265Z,67.66
2023-05-15T10:02:32.001Z,68.20
2023-05-15T10:04:59.386Z,67.62
2023-05-15T10:07:32.017Z,67.82
2023-05-15T10:09:59.662Z,67.33
2023-05-15T10:15:27.786Z,67.65
2023-05-15T10:17:55.639Z,68.15
2023-05-15T10:20:25.782Z,67.07
2023-05-15T10:28:44.802Z,68.00
2023-05-15T10:31:12.276Z,68.13
2023-05-15T10:33:40.572Z,67.35
2023-05-15T10:36:08.755Z,69.40
2023-05-15T10:38:39.042Z,69.41
2023-05-15T10:41:16.468Z,69.31
2023-05-15T10:43:44.545Z,68.80
2023-05-15T10:46:11.723Z,69.09
2023-05-15T10:48:39.375Z,69.65
2023-05-15T10:51:13.449Z,69.06
2023-05-15T10:53:40.153Z,68.99
2023-05-15T10:56:07.008Z,69.40
2023-05-15T10:58:34.653Z,69.46
2023-05-15T11:01:01.337Z,69.85
2023-05-15T11:03:47.916Z,69.22
2023-05-15T11:06:15.785Z,69.69
2023-05-15T11:08:46.101Z,70.13
2023-05-15T11:11:51.780Z,70.20
2023-05-15T11:14:19.529Z,69.88
2023-05-15T11:16:53.557Z,70.19
2023-05-15T11:19:22.796Z,70.85
2023-05-15T11:21:57.799Z,70.94
2023-05-15T11:24:29.809Z,70.25
2023-05-15T11:27:00.999Z,70.16
2023-05-15T11:29:27.573Z,70.55
2023-05-15T11:31:54.550Z,69.95
2023-05-15T11:34:33.715Z,70.60
2023-05-15T11:37:01.037Z,70.69
2023-05-15T11:39:28.640Z,69.80
2023-05-15T11:41:55.591Z,70.11
2023-05-15T11:44:23.902Z,70.82
2023-05-15T11:46:52.347Z,70.73
2023-05-15T11:49:20.492Z,71.00
2023-05-15T11:51:48.916Z,69.72
2023-05-15T11:54:16.759Z,70.23
2023-05-15T11:56:44.981Z,70.22
2023-05-15T11:59:15.025Z,69.42
2023-05-15T12:01:43.082Z,70.06
2023-05-15T12:04:19.628Z,69.34
2023-05-15T12:06:49.368Z,69.75
2023-05-15T12:09:19.087Z,69.75
2023-05-15T12:11:55.778Z,69.67
2023-05-15T12:14:33.949Z,69.46
2023-05-15T12:17:03.934Z,68.60
2023-05-15T12:19:31.078Z,69.61
2023-05-15T12:21:57.613Z,68.96
2023-05-15T12:24:26.126Z,68.00
2023-05-15T12:26:53.985Z,68.22
2023-05-15T12:29:21.442Z,66.74
2023-05-15T12:31:48.303Z,68.10
2023-05-15T12:34:15.025Z,67.90
2023-05-15T12:36:42.447Z,66.86
2023-05-15T12:39:10.697Z,66.58
2023-05-15T12:41:38.958Z,66.55
2023-05-15T12:44:07.884Z,67.04
2023-05-15T12:46:34.484Z,66.80
2023-05-15T12:49:01.609Z,66.05
2023-05-15T12:51:30.832Z,67.04
2023-05-15T12:53:58.301Z,67.22
2023-05-15T12:56:25.002Z,66.25
2023-05-15T12:58:54.483Z,66.54
2023-05-15T13:01:21.723Z,66.68
2023-05-15T13:03:49.530Z,65.81
2023-05-15T13:06:16.597Z,66.18
2023-05-15T13:08:44.237Z,65.52
2023-05-15T13:11:14.114Z,65.60
2023-05-15T13:13:43.458Z,65.12
2023-05-15T13:16:22.257Z,66.14
2023-05-15T13:18:48.976Z,65.75
2023-05-15T13:21:16.062Z,64.99
2023-05-15T13:23:42.661Z,64.87
2023-05-15T13:26:09.507Z,65.26
2023-05-15T13:28:36.162Z,66.61
2023-05-15T13:31:02.785Z,66.79
2023-05-15T13:33:29.325Z,66.88
2023-05-15T13:35:57.299Z,65.81
2023-05-15T13:38:23.919Z,67.07
2023-05-15T13:40:51.750Z,66.56
2023-05-15T13:43:18.243Z,66.88
2023-05-15T13:45:44.784Z,66.70
2023-05-15T13:48:11.411Z,66.86
2023-05-15T13:50:38.119Z,67.21
2023-05-15T13:53:04.644Z,67.53
2023-05-15T13:55:31.470Z,67.42
2023-05-15T13:57:58.157Z,67.63
2023-05-15T14:00:25.109Z,67.42
2023-05-15T14:02:51.881Z,67.46
2023-05-15T14:05:18.568Z,67.29
2023-05-15T14:07:45.183Z,67.05
2023-05-15T14:10:11.969Z,66.66
2023-05-15T14:12:38.874Z,66.38
2023-05-15T14:15:05.923Z,66.51
2023-05-15T14:17:32.506Z,66.44
2023-05-15T14:19:59.102Z,67.10
2023-05-15T14:22:25.673Z,66.72
2023-05-15T14:24:53.295Z,66.90
2023-05-15T14:27:20.125Z,65.78
2023-05-15T14:29:48.281Z,66.64
2023-05-15T14:32:15.992Z,67.21
2023-05-15T14:34:42.645Z,67.42
2023-05-15T14:37:09.122Z,67.35
2023-05-15T14:39:35.892Z,67.01
2023-05-15T14:42:02.637Z,66.33
2023-05-15T14:44:29.194Z,67.38
2023-05-15T14:47:08.457Z,66.63
2023-05-15T14:49:35.981Z,67.10
2023-05-15T14:52:03.059Z,67.46
2023-05-15T14:54:29.619Z,68.00
2023-05-15T14:56:57.559Z,67.60
2023-05-15T14:59:29.533Z,67.45
2023-05-15T15:01:56.297Z,67.93
2023-05-15T15:04:22.935Z,68.08
2023-05-15T15:06:49.701Z,67.76
2023-05-15T15:09:16.522Z,67.48
2023-05-15T15:11:44.194Z,67.62
2023-05-15T15:14:10.769Z,67.89
2023-05-15T15:16:37.440Z,67.99
2023-05-15T15:19:04.064Z,67.65
2023-05-15T15:21:30.836Z,67.89
2023-05-15T15:23:57.383Z,67.87
2023-05-15T15:26:23.896Z,67.74
2023-05-15T15:28:50.411Z,67.88
2023-05-15T15:31:16.956Z,66.38
2023-05-15T15:33:43.564Z,67.92
2023-05-15T15:36:10.194Z,67.61
2023-05-15T15:38:36.781Z,67.80
2023-05-15T15:41:03.649Z,67.74
2023-05-15T15:43:30.305Z,67.83
2023-05-15T15:45:58.023Z,68.18
2023-05-15T15:48:24.613Z,67.29
2023-05-15T15:50:52.135Z,67.73
2023-05-15T15:53:18.858Z,67.37
2023-05-15T15:55:47.025Z,68.14
2023-05-15T15:58:13.805Z,68.42
2023-05-15T16:00:42.281Z,68.59
2023-05-15T16:03:08.893Z,67.48
2023-05-15T16:05:35.492Z,68.76
2023-05-15T16:08:02.095Z,68.38
2023-05-15T16:10:28.987Z,68.89
2023-05-15T16:12:55.904Z,69.10
2023-05-15T16:15:24.060Z,69.27
2023-05-15T16:17:53.839Z,68.54
2023-05-15T16:20:21.199Z,68.63
2023-05-15T16:22:47.789Z,69.14
2023-05-15T16:25:14.364Z,69.19
2023-05-15T16:27:43.005Z,68.23
2023-05-15T16:30:11.522Z,68.46
2023-05-15T16:32:38.239Z,68.54
2023-05-15T16:35:05.318Z,68.12
2023-05-15T16:37:32.581Z,68.83
2023-05-15T16:39:59.181Z,68.02
2023-05-15T16:42:25.838Z,67.97
2023-05-15T16:44:52.712Z,69.07
2023-05-15T16:47:19.236Z,68.49
2023-05-15T16:49:47.587Z,68.04
2023-05-15T16:52:15.886Z,67.42
2023-05-15T16:54:42.509Z,67.57
2023-05-15T16:57:09.065Z,68.43
2023-05-15T16:59:35.576Z,68.30
2023-05-15T17:02:02.216Z,67.81
2023-05-15T17:04:33.084Z,66.94
2023-05-15T17:06:59.865Z,67.77
2023-05-15T17:09:26.443Z,67.24
2023-05-15T17:11:53.052Z,67.97
2023-05-15T17:14:20.716Z,67.86
2023-05-15T17:16:47.395Z,66.94
2023-05-15T17:19:14.206Z,67.79
2023-05-15T17:21:42.867Z,68.25
2023-05-15T17:24:09.420Z,67.34
2023-05-15T17:26:36.007Z,68.67
2023-05-15T17:29:02.627Z,68.42
2023-05-15T17:31:29.630Z,69.02
2023-05-15T17:34:08.545Z,68.97
2023-05-15T17:36:35.345Z,68.29
2023-05-15T17:39:01.900Z,69.54
2023-05-15T17:41:28.970Z,69.41
2023-05-15T17:43:55.704Z,69.84
2023-05-15T17:46:22.440Z,70.08
2023-05-15T17:48:49.091Z,70.56
2023-05-15T17:51:15.679Z,70.85
2023-05-15T17:53:42.350Z,70.64
2023-05-15T17:56:09.099Z,71.43
2023-05-15T17:58:35.892Z,71.54
2023-05-15T18:01:03.354Z,71.80
2023-05-15T18:03:30.350Z,71.67
2023-05-15T18:05:57.225Z,72.25
2023-05-15T18:08:23.865Z,72.33
2023-05-15T18:10:53.439Z,72.14
2023-05-15T18:13:20.169Z,72.16
2023-05-15T18:15:46.736Z,72.25
2023-05-15T18:18:13.487Z,72.93
2023-05-15T18:20:40.705Z,72.50
2023-05-15T18:23:08.383Z,72.45
2023-05-15T18:25:36.919Z,72.89
2023-05-15T18:28:04.452Z,72.40
2023-05-15T18:30:31.218Z,72.38
2023-05-15T18:32:58.398Z,72.54
2023-05-15T18:35:25.305Z,72.50
2023-05-15T18:37:52.079Z,72.61
2023-05-15T18:40:18.919Z,72.75
2023-05-15T18:42:45.528Z,72.46
2023-05-15T18:45:13.184Z,72.48
2023-05-15T18:47:41.085Z,72.43
2023-05-15T18:50:08.299Z,72.78
2023-05-15T18:55:33.901Z,72.44
2023-05-15T18:58:00.532Z,73.12
2023-05-15T19:00:37.931Z,72.77
2023-05-15T19:03:06.202Z,73.25
2023-05-15T19:08:49.752Z,73.58
2023-05-15T19:11:08.756Z,73.79
2023-05-15T19:13:35.730Z,74.18
2023-05-15T19:16:04.192Z,74.84
2023-05-15T19:18:30.969Z,74.38
2023-05-15T19:21:00.971Z,75.46
2023-05-15T19:23:56.707Z,75.59
2023-05-15T19:26:21.818Z,75.82
2023-05-15T19:28:48.573Z,76.54
2023-05-15T19:31:30.246Z,76.84
2023-05-15T19:34:13.535Z,77.71
2023-05-15T19:36:42.478Z,78.22
2023-05-15T19:39:09.284Z,77.79
2023-05-15T19:41:37.298Z,77.81
2023-05-15T19:44:11.844Z,78.36
2023-05-15T19:46:40.589Z,76.92
2023-05-15T19:49:08.751Z,76.63
2023-05-15T19:51:42.759Z,76.83
2023-05-15T19:54:31.517Z,76.52
2023-05-15T19:59:39.465Z,75.86
2023-05-15T20:02:11.401Z,76.88
2023-05-15T20:04:38.387Z,76.41
2023-05-15T20:07:05.389Z,76.09
2023-05-15T20:09:32.080Z,77.20
2023-05-15T20:12:10.919Z,78.01
2023-05-15T20:14:37.882Z,78.16
2023-05-15T20:17:07.180Z,79.05
2023-05-15T20:19:34.421Z,78.94
2023-05-15T20:22:01.037Z,79.44
2023-05-15T20:24:27.669Z,79.59
2023-05-15T20:26:54.423Z,79.47
2023-05-15T20:29:21.406Z,79.97
2023-05-15T20:31:49.168Z,80.71
2023-05-15T20:34:22.014Z,79.85
2023-05-15T20:36:52.636Z,80.22
2023-05-15T20:39:30.591Z,79.63
2023-05-15T20:42:11.322Z,80.16
2023-05-15T20:44:40.572Z,79.74
2023-05-15T20:47:07.405Z,79.93
2023-05-15T20:49:38.357Z,79.92
2023-05-15T20:52:38.465Z,78.53
2023-05-15T20:55:25.626Z,78.06
2023-05-15T20:57:53.603Z,78.59
2023-05-15T21:00:21.394Z,77.51
2023-05-15T21:05:53.638Z,78.55
2023-05-15T21:09:18.096Z,78.24
2023-05-15T21:12:07.102Z,78.58
2023-05-15T21:18:06.657Z,79.20
2023-05-15T21:26:54.412Z,78.68
2023-05-15T21:29:36.105Z,77.59
2023-05-15T21:32:04.349Z,77.59
2023-05-15T21:34:55.656Z,77.69
2023-05-15T21:40:13.750Z,76.81
2023-05-15T21:42:40.787Z,76.26
2023-05-15T21:45:09.341Z,76.28
2023-05-15T21:47:42.385Z,75.90
2023-05-15T21:54:02.319Z,75.94
2023-05-15T21:57:01.951Z,75.59
2023-05-15T21:59:28.657Z,75.21
2023-05-15T22:02:22.751Z,75.21
2023-05-15T22:04:49.497Z,74.01
2023-05-15T22:07:17.777Z,74.06
2023-05-15T22:12:46.961Z,74.61
2023-05-15T22:15:16.093Z,74.60
2023-05-15T22:17:42.971Z,73.71
2023-05-15T22:20:11.560Z,74.05
2023-05-15T22:23:06.676Z,73.82
2023-05-15T22:25:51.769Z,74.29
2023-05-15T22:31:11.795Z,72.96
2023-05-15T22:33:44.192Z,72.06
2023-05-15T22:36:12.146Z,72.10
2023-05-15T22:38:42.165Z,72.91
2023-05-15T22:41:14.960Z,73.29
2023-05-15T22:44:01.844Z,72.04
2023-05-15T22:46:29.997Z,72.65
2023-05-15T22:51:45.427Z,72.55
2023-05-15T22:54:12.377Z,72.77
2023-05-15T22:56:43.243Z,73.10
2023-05-15T22:59:14.405Z,71.66
2023-05-15T23:01:47.629Z,72.64
2023-05-15T23:04:14.704Z,72.99
2023-05-15T23:10:15.599Z,73.98
2023-05-15T23:12:44.629Z,73.76
2023-05-15T23:15:11.801Z,73.20
2023-05-15T23:21:26.969Z,72.70
2023-05-15T23:23:54.009Z,72.42
2023-05-15T23:26:44.393Z,72.85
2023-05-15T23:32:03.634Z,72.71
2023-05-15T23:37:13.257Z,72.79
2023-05-15T23:39:42.976Z,73.22
2023-05-15T23:49:05.007Z,72.70
2023-05-15T23:52:28.281Z,72.29
2023-05-15T23:55:24.270Z,72.60
2023-05-15T23:58:06.687Z,72.63
